sensor_id;sensor_type;location;lat;lon;timestamp;pressure;altitude;pressure_sealevel;temperature;humidity
46714;BME280;32445;51.376;10.874;2023-02-12T00:01:49;101316.47;;;8.83;63.39
46714;BME280;32445;51.376;10.874;2023-02-12T00:04:49;101327.66;;;8.81;63.26
46714;BME280;32445;51.376;10.874;2023-02-12T00:07:50;101327.66;;;8.81;63.81
46714;BME280;32445;51.376;10.874;2023-02-12T00:10:50;101326.81;;;8.83;63.81
46714;BME280;32445;51.376;10.874;2023-02-12T00:13:51;101329.44;;;8.87;63.86
46714;BME280;32445;51.376;10.874;2023-02-12T00:16:52;101326.00;;;8.88;63.71
46714;BME280;32445;51.376;10.874;2023-02-12T00:19:52;101328.53;;;8.81;63.87
46714;BME280;32445;51.376;10.874;2023-02-12T00:22:53;101323.34;;;8.81;64.07
46714;BME280;32445;51.376;10.874;2023-02-12T00:25:53;101335.47;;;8.84;63.91
46714;BME280;32445;51.376;10.874;2023-02-12T00:28:54;101330.25;;;8.82;64.02
46714;BME280;32445;51.376;10.874;2023-02-12T00:31:54;101338.06;;;8.84;64.24
46714;BME280;32445;51.376;10.874;2023-02-12T00:34:55;101328.56;;;8.83;64.37
46714;BME280;32445;51.376;10.874;2023-02-12T00:37:55;101325.06;;;8.82;63.96
46714;BME280;32445;51.376;10.874;2023-02-12T00:40:56;101330.28;;;8.84;63.78
46714;BME280;32445;51.376;10.874;2023-02-12T00:43:56;101330.28;;;8.84;63.85
46714;BME280;32445;51.376;10.874;2023-02-12T00:46:57;101329.41;;;8.85;63.99
46714;BME280;32445;51.376;10.874;2023-02-12T00:49:57;101327.66;;;8.82;63.76
46714;BME280;32445;51.376;10.874;2023-02-12T00:52:57;101330.25;;;8.82;64.17
46714;BME280;32445;51.376;10.874;2023-02-12T00:55:58;101330.25;;;8.82;64.33
46714;BME280;32445;51.376;10.874;2023-02-12T00:58:59;101336.28;;;8.78;64.61
46714;BME280;32445;51.376;10.874;2023-02-12T01:02:00;101327.59;;;8.75;64.21
46714;BME280;32445;51.376;10.874;2023-02-12T01:05:00;101328.44;;;8.75;64.57
46714;BME280;32445;51.376;10.874;2023-02-12T01:08:01;101334.53;;;8.77;64.45
46714;BME280;32445;51.376;10.874;2023-02-12T01:11:03;101331.94;;;8.77;64.60
46714;BME280;32445;51.376;10.874;2023-02-12T01:14:05;101325.91;;;8.77;64.29
46714;BME280;32445;51.376;10.874;2023-02-12T01:17:07;101330.19;;;8.75;64.78
46714;BME280;32445;51.376;10.874;2023-02-12T01:20:11;101326.72;;;8.71;65.16
46714;BME280;32445;51.376;10.874;2023-02-12T01:23:12;101336.19;;;8.71;65.29
46714;BME280;32445;51.376;10.874;2023-02-12T01:26:13;101330.97;;;8.69;65.10
46714;BME280;32445;51.376;10.874;2023-02-12T01:29:14;101330.13;;;8.70;65.00
46714;BME280;32445;51.376;10.874;2023-02-12T01:32:14;101331.00;;;8.71;64.99
46714;BME280;32445;51.376;10.874;2023-02-12T01:35:15;101337.06;;;8.73;65.15
46714;BME280;32445;51.376;10.874;2023-02-12T01:38:15;101329.34;;;8.76;64.76
46714;BME280;32445;51.376;10.874;2023-02-12T01:41:21;101331.09;;;8.77;64.68
46714;BME280;32445;51.376;10.874;2023-02-12T01:44:26;101335.38;;;8.76;64.83
46714;BME280;32445;51.376;10.874;2023-02-12T01:47:27;101341.47;;;8.80;64.60
46714;BME280;32445;51.376;10.874;2023-02-12T01:50:28;101330.25;;;8.82;64.25
46714;BME280;32445;51.376;10.874;2023-02-12T01:53:32;101325.06;;;8.82;64.74
46714;BME280;32445;51.376;10.874;2023-02-12T01:56:34;101325.13;;;8.84;64.07
46714;BME280;32445;51.376;10.874;2023-02-12T01:59:35;101336.31;;;8.83;64.51
46714;BME280;32445;51.376;10.874;2023-02-12T02:02:37;101338.06;;;8.86;64.37
46714;BME280;32445;51.376;10.874;2023-02-12T02:06:14;101330.22;;;8.79;63.88
46714;BME280;32445;51.376;10.874;2023-02-12T02:09:16;101331.97;;;8.80;64.29
46714;BME280;32445;51.376;10.874;2023-02-12T02:12:18;101329.38;;;8.79;64.15
46714;BME280;32445;51.376;10.874;2023-02-12T02:15:40;101333.69;;;8.77;64.25
46714;BME280;32445;51.376;10.874;2023-02-12T02:18:55;101333.63;;;8.74;64.72
46714;BME280;32445;51.376;10.874;2023-02-12T02:31:51;101326.78;;;8.79;64.23
46714;BME280;32445;51.376;10.874;2023-02-12T02:35:22;101325.03;;;8.79;64.28
46714;BME280;32445;51.376;10.874;2023-02-12T02:38:36;101335.47;;;8.84;64.26
46714;BME280;32445;51.376;10.874;2023-02-12T02:41:56;101331.16;;;8.85;63.66
46714;BME280;32445;51.376;10.874;2023-02-12T02:45:12;101329.44;;;8.88;63.97
46714;BME280;32445;51.376;10.874;2023-02-12T02:48:43;101329.50;;;8.90;63.37
46714;BME280;32445;51.376;10.874;2023-02-12T02:51:48;101328.63;;;8.91;63.46
46714;BME280;32445;51.376;10.874;2023-02-12T02:54:54;101325.16;;;8.89;63.65
46714;BME280;32445;51.376;10.874;2023-02-12T02:58:03;101322.56;;;8.89;63.37
46714;BME280;32445;51.376;10.874;2023-02-12T03:01:15;101323.41;;;8.88;63.88
46714;BME280;32445;51.376;10.874;2023-02-12T03:04:23;101329.44;;;8.88;63.83
46714;BME280;32445;51.376;10.874;2023-02-12T03:07:30;101323.41;;;8.88;64.28
46714;BME280;32445;51.376;10.874;2023-02-12T03:10:36;101322.56;;;8.89;63.99
46714;BME280;32445;51.376;10.874;2023-02-12T03:13:47;101319.06;;;8.87;63.66
46714;BME280;32445;51.376;10.874;2023-02-12T03:20:00;101322.53;;;8.86;64.16
46714;BME280;32445;51.376;10.874;2023-02-12T03:27:04;101319.06;;;8.87;64.01
46714;BME280;32445;51.376;10.874;2023-02-12T03:30:07;101311.34;;;8.90;64.14
46714;BME280;32445;51.376;10.874;2023-02-12T03:34:12;101325.13;;;8.87;63.58
46714;BME280;32445;51.376;10.874;2023-02-12T03:40:07;101330.34;;;8.90;63.25
46714;BME280;32445;51.376;10.874;2023-02-12T03:43:18;101332.09;;;8.91;63.61
46714;BME280;32445;51.376;10.874;2023-02-12T03:49:59;101339.88;;;8.93;63.63
46714;BME280;32445;51.376;10.874;2023-02-12T03:53:01;101340.69;;;8.87;63.77
46714;BME280;32445;51.376;10.874;2023-02-12T03:56:08;101338.00;;;8.79;64.20
46714;BME280;32445;51.376;10.874;2023-02-12T03:59:10;101337.09;;;8.74;64.64
46714;BME280;32445;51.376;10.874;2023-02-12T04:02:11;101342.19;;;8.70;64.57
46714;BME280;32445;51.376;10.874;2023-02-12T04:05:20;101355.97;;;8.65;65.06
46714;BME280;32445;51.376;10.874;2023-02-12T04:08:22;101347.34;;;8.66;65.06
46714;BME280;32445;51.376;10.874;2023-02-12T04:11:31;101347.38;;;8.70;64.81
46714;BME280;32445;51.376;10.874;2023-02-12T04:17:56;101353.44;;;8.69;65.46
46714;BME280;32445;51.376;10.874;2023-02-12T04:24:17;101353.41;;;8.67;65.21
46714;BME280;32445;51.376;10.874;2023-02-12T04:27:34;101363.78;;;8.69;64.93
46714;BME280;32445;51.376;10.874;2023-02-12T04:30:47;101374.94;;;8.64;65.09
46714;BME280;32445;51.376;10.874;2023-02-12T04:37:14;101376.63;;;8.62;65.17
46714;BME280;32445;51.376;10.874;2023-02-12T04:40:17;101380.09;;;8.61;65.60
46714;BME280;32445;51.376;10.874;2023-02-12T04:43:29;101387.84;;;8.60;65.17
46714;BME280;32445;51.376;10.874;2023-02-12T04:46:30;101390.47;;;8.63;65.99
46714;BME280;32445;51.376;10.874;2023-02-12T04:49:31;101388.75;;;8.65;65.24
46714;BME280;32445;51.376;10.874;2023-02-12T04:52:31;101387.91;;;8.68;64.50
46714;BME280;32445;51.376;10.874;2023-02-12T04:55:31;101394.84;;;8.69;64.73
46714;BME280;32445;51.376;10.874;2023-02-12T04:58:32;101395.72;;;8.71;64.99
46714;BME280;32445;51.376;10.874;2023-02-12T05:01:33;101402.69;;;8.75;64.87
46714;BME280;32445;51.376;10.874;2023-02-12T05:04:34;101401.00;;;8.78;64.15
46714;BME280;32445;51.376;10.874;2023-02-12T05:07:34;101400.16;;;8.82;63.36
46714;BME280;32445;51.376;10.874;2023-02-12T05:10:35;101395.91;;;8.86;63.95
46714;BME280;32445;51.376;10.874;2023-02-12T05:13:35;101400.25;;;8.89;63.56
46714;BME280;32445;51.376;10.874;2023-02-12T05:16:36;101396.84;;;8.91;63.35
46714;BME280;32445;51.376;10.874;2023-02-12T05:19:36;101403.75;;;8.94;63.45
46714;BME280;32445;51.376;10.874;2023-02-12T05:22:37;101402.06;;;8.94;63.37
46714;BME280;32445;51.376;10.874;2023-02-12T05:25:37;101391.69;;;8.96;62.85
46714;BME280;32445;51.376;10.874;2023-02-12T05:28:38;101395.16;;;8.96;62.47
46714;BME280;32445;51.376;10.874;2023-02-12T05:31:39;101398.63;;;8.97;62.69
46714;BME280;32445;51.376;10.874;2023-02-12T05:34:39;101399.50;;;8.97;62.60
46714;BME280;32445;51.376;10.874;2023-02-12T05:37:40;101396.91;;;8.97;63.17
46714;BME280;32445;51.376;10.874;2023-02-12T05:40:40;101398.63;;;8.97;62.80
46714;BME280;32445;51.376;10.874;2023-02-12T05:43:42;101397.75;;;8.96;62.31
46714;BME280;32445;51.376;10.874;2023-02-12T05:46:43;101400.31;;;8.95;62.75
46714;BME280;32445;51.376;10.874;2023-02-12T05:49:43;101408.91;;;8.91;62.58
46714;BME280;32445;51.376;10.874;2023-02-12T05:52:43;101407.09;;;8.85;62.94
46714;BME280;32445;51.376;10.874;2023-02-12T05:55:44;101408.81;;;8.81;63.10
46714;BME280;32445;51.376;10.874;2023-02-12T05:58:50;101403.59;;;8.78;63.12
46714;BME280;32445;51.376;10.874;2023-02-12T06:01:51;101406.09;;;8.74;63.18
46714;BME280;32445;51.376;10.874;2023-02-12T06:04:52;101406.97;;;8.71;62.85
46714;BME280;32445;51.376;10.874;2023-02-12T06:07:52;101406.88;;;8.65;63.39
46714;BME280;32445;51.376;10.874;2023-02-12T06:10:53;101405.03;;;8.55;63.49
46714;BME280;32445;51.376;10.874;2023-02-12T06:13:53;101399.78;;;8.50;63.77
46714;BME280;32445;51.376;10.874;2023-02-12T06:16:53;101406.63;;;8.45;64.31
46714;BME280;32445;51.376;10.874;2023-02-12T06:19:54;101409.97;;;8.39;64.62
46714;BME280;32445;51.376;10.874;2023-02-12T06:22:54;101411.66;;;8.37;65.02
46714;BME280;32445;51.376;10.874;2023-02-12T06:25:55;101409.03;;;8.32;64.67
46714;BME280;32445;51.376;10.874;2023-02-12T06:28:56;101402.88;;;8.26;65.23
46714;BME280;32445;51.376;10.874;2023-02-12T06:31:56;101408.06;;;8.26;65.26
46714;BME280;32445;51.376;10.874;2023-02-12T06:34:56;101422.72;;;8.24;65.26
46714;BME280;32445;51.376;10.874;2023-02-12T06:37:56;101429.63;;;8.28;65.04
46714;BME280;32445;51.376;10.874;2023-02-12T06:41:00;101429.66;;;8.29;65.35
46714;BME280;32445;51.376;10.874;2023-02-12T06:44:01;101437.50;;;8.32;64.98
46714;BME280;32445;51.376;10.874;2023-02-12T06:47:01;101434.13;;;8.38;64.25
46714;BME280;32445;51.376;10.874;2023-02-12T06:50:02;101434.22;;;8.44;64.45
46714;BME280;32445;51.376;10.874;2023-02-12T06:53:02;101436.84;;;8.47;64.16
46714;BME280;32445;51.376;10.874;2023-02-12T06:56:05;101440.28;;;8.46;63.85
46714;BME280;32445;51.376;10.874;2023-02-12T06:59:05;101445.34;;;8.40;64.38
46714;BME280;32445;51.376;10.874;2023-02-12T07:02:06;101454.78;;;8.37;64.16
46714;BME280;32445;51.376;10.874;2023-02-12T07:05:06;101449.59;;;8.37;64.16
46714;BME280;32445;51.376;10.874;2023-02-12T07:08:07;101456.50;;;8.36;64.46
46714;BME280;32445;51.376;10.874;2023-02-12T07:11:07;101467.72;;;8.37;64.66
46714;BME280;32445;51.376;10.874;2023-02-12T07:14:13;101464.31;;;8.39;64.13
46714;BME280;32445;51.376;10.874;2023-02-12T07:17:14;101462.63;;;8.41;64.00
46714;BME280;32445;51.376;10.874;2023-02-12T07:20:14;101468.63;;;8.40;64.29
46714;BME280;32445;51.376;10.874;2023-02-12T07:23:15;101469.56;;;8.44;64.49
46714;BME280;32445;51.376;10.874;2023-02-12T07:26:16;101474.84;;;8.48;64.38
46714;BME280;32445;51.376;10.874;2023-02-12T07:29:16;101476.63;;;8.53;64.19
46714;BME280;32445;51.376;10.874;2023-02-12T07:32:16;101474.94;;;8.56;64.22
46714;BME280;32445;51.376;10.874;2023-02-12T07:35:17;101476.69;;;8.59;63.88
46714;BME280;32445;51.376;10.874;2023-02-12T07:38:17;101484.50;;;8.62;64.06
46714;BME280;32445;51.376;10.874;2023-02-12T07:41:21;101481.09;;;8.64;63.90
46714;BME280;32445;51.376;10.874;2023-02-12T07:44:21;101488.91;;;8.68;64.20
46714;BME280;32445;51.376;10.874;2023-02-12T07:47:22;101489.78;;;8.70;64.22
46714;BME280;32445;51.376;10.874;2023-02-12T07:50:22;101492.34;;;8.70;63.93
46714;BME280;32445;51.376;10.874;2023-02-12T07:53:22;101500.19;;;8.71;64.33
46714;BME280;32445;51.376;10.874;2023-02-12T07:56:25;101500.13;;;8.70;64.57
46714;BME280;32445;51.376;10.874;2023-02-12T07:59:29;101513.13;;;8.71;64.69
46714;BME280;32445;51.376;10.874;2023-02-12T08:02:30;101511.38;;;8.70;64.62
46714;BME280;32445;51.376;10.874;2023-02-12T08:05:30;101511.38;;;8.70;65.55
46714;BME280;32445;51.376;10.874;2023-02-12T08:08:30;101516.56;;;8.72;65.35
46714;BME280;32445;51.376;10.874;2023-02-12T08:11:31;101514.84;;;8.72;65.33
46714;BME280;32445;51.376;10.874;2023-02-12T08:14:32;101514.84;;;8.74;66.13
46714;BME280;32445;51.376;10.874;2023-02-12T08:17:33;101517.50;;;8.77;66.06
46714;BME280;32445;51.376;10.874;2023-02-12T08:20:33;101525.31;;;8.80;66.06
46714;BME280;32445;51.376;10.874;2023-02-12T08:23:34;101521.94;;;8.84;65.87
46714;BME280;32445;51.376;10.874;2023-02-12T08:26:37;101527.13;;;8.87;65.92
46714;BME280;32445;51.376;10.874;2023-02-12T08:29:37;101530.63;;;8.91;65.88
46714;BME280;32445;51.376;10.874;2023-02-12T08:32:37;101521.19;;;8.94;65.99
46714;BME280;32445;51.376;10.874;2023-02-12T08:35:38;101519.50;;;8.98;65.92
46714;BME280;32445;51.376;10.874;2023-02-12T08:38:38;101524.72;;;9.01;65.47
46714;BME280;32445;51.376;10.874;2023-02-12T08:41:38;101523.91;;;9.05;65.53
46714;BME280;32445;51.376;10.874;2023-02-12T08:44:41;101524.78;;;9.06;65.58
46714;BME280;32445;51.376;10.874;2023-02-12T08:47:42;101529.16;;;9.10;65.72
46714;BME280;32445;51.376;10.874;2023-02-12T08:50:42;101530.03;;;9.10;65.70
46714;BME280;32445;51.376;10.874;2023-02-12T08:53:45;101535.25;;;9.15;65.18
46714;BME280;32445;51.376;10.874;2023-02-12T08:56:45;101542.25;;;9.22;65.19
46714;BME280;32445;51.376;10.874;2023-02-12T08:59:47;101538.88;;;9.28;65.39
46714;BME280;32445;51.376;10.874;2023-02-12T09:02:48;101544.09;;;9.32;65.29
46714;BME280;32445;51.376;10.874;2023-02-12T09:05:48;101544.16;;;9.37;64.56
46714;BME280;32445;51.376;10.874;2023-02-12T09:08:51;101535.50;;;9.37;65.00
46714;BME280;32445;51.376;10.874;2023-02-12T09:11:51;101546.78;;;9.40;64.86
46714;BME280;32445;51.376;10.874;2023-02-12T09:14:52;101552.84;;;9.42;64.71
46714;BME280;32445;51.376;10.874;2023-02-12T09:17:52;101552.06;;;9.48;64.80
46714;BME280;32445;51.376;10.874;2023-02-12T09:20:52;101556.44;;;9.55;64.94
46714;BME280;32445;51.376;10.874;2023-02-12T09:23:53;101555.63;;;9.58;64.68
46714;BME280;32445;51.376;10.874;2023-02-12T09:26:56;101556.50;;;9.61;64.98
46714;BME280;32445;51.376;10.874;2023-02-12T09:29:56;101561.78;;;9.67;64.76
46714;BME280;32445;51.376;10.874;2023-02-12T09:32:56;101556.63;;;9.72;64.84
46714;BME280;32445;51.376;10.874;2023-02-12T09:36:03;101561.03;;;9.81;64.51
46714;BME280;32445;51.376;10.874;2023-02-12T09:39:03;101561.97;;;9.87;64.70
46714;BME280;32445;51.376;10.874;2023-02-12T09:45:36;101573.31;;;9.96;63.75
46714;BME280;32445;51.376;10.874;2023-02-12T09:48:45;101575.91;;;9.97;64.19
46714;BME280;32445;51.376;10.874;2023-02-12T09:51:49;101579.41;;;10.02;64.08
46714;BME280;32445;51.376;10.874;2023-02-12T09:54:54;101575.13;;;10.04;63.71
46714;BME280;32445;51.376;10.874;2023-02-12T09:57:55;101582.09;;;10.10;63.94
46714;BME280;32445;51.376;10.874;2023-02-12T10:00:55;101579.53;;;10.16;63.37
46714;BME280;32445;51.376;10.874;2023-02-12T10:03:56;101586.53;;;10.24;63.49
46714;BME280;32445;51.376;10.874;2023-02-12T10:07:05;101584.81;;;10.27;63.17
46714;BME280;32445;51.376;10.874;2023-02-12T10:23:02;101591.06;;;10.45;62.42
46714;BME280;32445;51.376;10.874;2023-02-12T10:26:29;101593.69;;;10.51;63.17
46714;BME280;32445;51.376;10.874;2023-02-12T10:29:36;101587.69;;;10.55;62.64
46714;BME280;32445;51.376;10.874;2023-02-12T10:32:38;101592.00;;;10.54;62.60
46714;BME280;32445;51.376;10.874;2023-02-12T10:35:47;101591.13;;;10.54;62.45
46714;BME280;32445;51.376;10.874;2023-02-12T10:42:17;101586.84;;;10.61;62.23
46714;BME280;32445;51.376;10.874;2023-02-12T10:45:21;101586.00;;;10.63;62.21
46714;BME280;32445;51.376;10.874;2023-02-12T10:48:31;101588.63;;;10.68;61.82
46714;BME280;32445;51.376;10.874;2023-02-12T10:54:48;101589.50;;;10.71;62.04
46714;BME280;32445;51.376;10.874;2023-02-12T10:57:49;101584.38;;;10.76;62.11
46714;BME280;32445;51.376;10.874;2023-02-12T11:00:57;101581.78;;;10.81;62.06
46714;BME280;32445;51.376;10.874;2023-02-12T11:04:06;101580.91;;;10.79;62.12
46714;BME280;32445;51.376;10.874;2023-02-12T11:07:18;101584.38;;;10.79;61.93
46714;BME280;32445;51.376;10.874;2023-02-12T11:10:30;101586.97;;;10.81;62.24
46714;BME280;32445;51.376;10.874;2023-02-12T11:13:31;101580.13;;;10.89;61.77
46714;BME280;32445;51.376;10.874;2023-02-12T11:16:44;101575.78;;;10.93;61.19
46714;BME280;32445;51.376;10.874;2023-02-12T11:23:35;101579.28;;;10.96;61.16
46714;BME280;32445;51.376;10.874;2023-02-12T11:26:36;101577.56;;;11.03;61.00
46714;BME280;32445;51.376;10.874;2023-02-12T11:29:37;101571.53;;;11.04;61.25
46714;BME280;32445;51.376;10.874;2023-02-12T11:32:37;101575.84;;;11.02;60.85
46714;BME280;32445;51.376;10.874;2023-02-12T11:35:57;101565.47;;;11.03;61.52
46714;BME280;32445;51.376;10.874;2023-02-12T11:38:59;101566.34;;;11.08;61.09
46714;BME280;32445;51.376;10.874;2023-02-12T11:45:00;101556.84;;;11.18;60.81
46714;BME280;32445;51.376;10.874;2023-02-12T11:48:01;101549.94;;;11.20;60.97
46714;BME280;32445;51.376;10.874;2023-02-12T11:51:06;101550.81;;;11.27;60.90
46714;BME280;32445;51.376;10.874;2023-02-12T11:54:18;101560.38;;;11.34;61.09
46714;BME280;32445;51.376;10.874;2023-02-12T11:57:46;101555.19;;;11.37;60.48
46714;BME280;32445;51.376;10.874;2023-02-12T12:01:04;101543.06;;;11.41;60.67
46714;BME280;32445;51.376;10.874;2023-02-12T12:04:11;101546.53;;;11.45;60.10
46714;BME280;32445;51.376;10.874;2023-02-12T12:07:29;101550.88;;;11.42;59.82
46714;BME280;32445;51.376;10.874;2023-02-12T12:10:44;101543.09;;;11.42;60.35
46714;BME280;32445;51.376;10.874;2023-02-12T12:16:59;101548.34;;;11.64;59.85
46714;BME280;32445;51.376;10.874;2023-02-12T12:20:24;101543.16;;;11.75;59.77
46714;BME280;32445;51.376;10.874;2023-02-12T12:23:59;101551.81;;;11.68;59.39
46714;BME280;32445;51.376;10.874;2023-02-12T12:27:23;101544.03;;;11.71;59.14
46714;BME280;32445;51.376;10.874;2023-02-12T12:31:09;101540.56;;;11.75;59.12
46714;BME280;32445;51.376;10.874;2023-02-12T12:40:37;101540.56;;;11.84;59.10
46714;BME280;32445;51.376;10.874;2023-02-12T12:43:52;101539.72;;;11.87;59.23
46714;BME280;32445;51.376;10.874;2023-02-12T12:54:12;101539.72;;;11.85;59.37
46714;BME280;32445;51.376;10.874;2023-02-12T13:00:34;101535.34;;;11.86;58.94
46714;BME280;32445;51.376;10.874;2023-02-12T13:03:42;101537.97;;;11.86;59.23
46714;BME280;32445;51.376;10.874;2023-02-12T13:10:22;101531.88;;;11.77;59.21
46714;BME280;32445;51.376;10.874;2023-02-12T13:13:33;101524.94;;;11.80;59.14
46714;BME280;32445;51.376;10.874;2023-02-12T13:16:42;101525.81;;;11.83;59.01
46714;BME280;32445;51.376;10.874;2023-02-12T13:20:00;101520.59;;;11.82;58.76
46714;BME280;32445;51.376;10.874;2023-02-12T13:23:14;101516.28;;;11.84;58.97
46714;BME280;32445;51.376;10.874;2023-02-12T13:26:21;101518.03;;;11.88;58.60
46714;BME280;32445;51.376;10.874;2023-02-12T13:29:43;101520.63;;;11.86;58.38
46714;BME280;32445;51.376;10.874;2023-02-12T13:35:57;101512.81;;;11.77;58.97
46714;BME280;32445;51.376;10.874;2023-02-12T13:39:06;101517.16;;;11.75;59.02
46714;BME280;32445;51.376;10.874;2023-02-12T13:42:20;101515.41;;;11.77;58.77
46714;BME280;32445;51.376;10.874;2023-02-12T13:45:47;101511.94;;;11.76;58.89
46714;BME280;32445;51.376;10.874;2023-02-12T13:48:55;101512.81;;;11.80;58.86
46714;BME280;32445;51.376;10.874;2023-02-12T13:52:24;101510.19;;;11.82;58.98
46714;BME280;32445;51.376;10.874;2023-02-12T13:55:32;101514.53;;;11.87;58.67
46714;BME280;32445;51.376;10.874;2023-02-12T14:01:40;101508.44;;;11.79;58.42
46714;BME280;32445;51.376;10.874;2023-02-12T14:04:45;101506.75;;;11.78;58.28
46714;BME280;32445;51.376;10.874;2023-02-12T14:07:50;101501.53;;;11.80;58.51
46714;BME280;32445;51.376;10.874;2023-02-12T14:11:06;101499.78;;;11.74;58.91
46714;BME280;32445;51.376;10.874;2023-02-12T14:14:07;101507.59;;;11.77;58.94
46714;BME280;32445;51.376;10.874;2023-02-12T14:23:30;101511.06;;;11.70;59.05
46714;BME280;32445;51.376;10.874;2023-02-12T14:26:36;101503.25;;;11.71;59.12
46714;BME280;32445;51.376;10.874;2023-02-12T14:29:37;101503.25;;;11.76;59.37
46714;BME280;32445;51.376;10.874;2023-02-12T14:35:45;101506.75;;;11.80;58.71
46714;BME280;32445;51.376;10.874;2023-02-12T14:45:30;101514.53;;;11.76;59.12
46714;BME280;32445;51.376;10.874;2023-02-12T14:51:55;101509.31;;;11.72;59.13
46714;BME280;32445;51.376;10.874;2023-02-12T14:54:58;101503.25;;;11.71;59.07
46714;BME280;32445;51.376;10.874;2023-02-12T14:58:03;101501.50;;;11.72;58.68
46714;BME280;32445;51.376;10.874;2023-02-12T15:01:04;101504.09;;;11.72;58.83
46714;BME280;32445;51.376;10.874;2023-02-12T15:04:18;101496.31;;;11.69;58.78
46714;BME280;32445;51.376;10.874;2023-02-12T15:07:32;101502.38;;;11.65;58.96
46714;BME280;32445;51.376;10.874;2023-02-12T15:10:39;101500.66;;;11.62;59.25
46714;BME280;32445;51.376;10.874;2023-02-12T15:13:47;101504.97;;;11.55;59.14
46714;BME280;32445;51.376;10.874;2023-02-12T15:20:34;101520.56;;;11.51;59.30
46714;BME280;32445;51.376;10.874;2023-02-12T15:23:41;101524.91;;;11.53;59.09
46714;BME280;32445;51.376;10.874;2023-02-12T15:26:50;101514.50;;;11.53;59.38
46714;BME280;32445;51.376;10.874;2023-02-12T15:29:52;101521.44;;;11.53;59.05
46714;BME280;32445;51.376;10.874;2023-02-12T15:32:55;101524.88;;;11.46;59.34
46714;BME280;32445;51.376;10.874;2023-02-12T15:35:57;101521.41;;;11.42;59.54
46714;BME280;32445;51.376;10.874;2023-02-12T15:39:01;101522.28;;;11.39;59.53
46714;BME280;32445;51.376;10.874;2023-02-12T15:42:03;101524.88;;;11.38;59.34
46714;BME280;32445;51.376;10.874;2023-02-12T15:48:20;101523.97;;;11.36;59.39
46714;BME280;32445;51.376;10.874;2023-02-12T15:51:34;101523.97;;;11.33;59.36
46714;BME280;32445;51.376;10.874;2023-02-12T15:54:38;101522.28;;;11.35;59.41
46714;BME280;32445;51.376;10.874;2023-02-12T15:57:39;101523.13;;;11.31;59.17
46714;BME280;32445;51.376;10.874;2023-02-12T16:00:42;101518.78;;;11.31;59.02
46714;BME280;32445;51.376;10.874;2023-02-12T16:03:42;101516.19;;;11.31;59.23
46714;BME280;32445;51.376;10.874;2023-02-12T16:06:43;101520.47;;;11.24;59.59
46714;BME280;32445;51.376;10.874;2023-02-12T16:09:44;101514.41;;;11.19;59.93
46714;BME280;32445;51.376;10.874;2023-02-12T16:12:47;101513.56;;;11.20;59.79
46714;BME280;32445;51.376;10.874;2023-02-12T16:19:21;101518.72;;;11.19;59.55
46714;BME280;32445;51.376;10.874;2023-02-12T16:22:32;101534.31;;;11.16;59.35
46714;BME280;32445;51.376;10.874;2023-02-12T16:25:35;101537.75;;;11.12;59.73
46714;BME280;32445;51.376;10.874;2023-02-12T16:28:36;101540.34;;;11.10;58.97
46714;BME280;32445;51.376;10.874;2023-02-12T16:31:36;101542.09;;;11.08;59.96
46714;BME280;32445;51.376;10.874;2023-02-12T16:34:37;101536.88;;;11.02;59.80
46714;BME280;32445;51.376;10.874;2023-02-12T16:40:38;101542.03;;;10.97;59.90
46714;BME280;32445;51.376;10.874;2023-02-12T16:43:39;101544.59;;;10.89;60.14
46714;BME280;32445;51.376;10.874;2023-02-12T16:46:59;101554.97;;;10.86;60.26
46714;BME280;32445;51.376;10.874;2023-02-12T16:50:01;101551.53;;;10.89;59.61
46714;BME280;32445;51.376;10.874;2023-02-12T16:53:32;101561.91;;;10.87;59.95
46714;BME280;32445;51.376;10.874;2023-02-12T16:56:37;101562.78;;;10.89;59.90
46714;BME280;32445;51.376;10.874;2023-02-12T16:59:38;101561.03;;;10.90;59.85
46714;BME280;32445;51.376;10.874;2023-02-12T17:02:40;101566.25;;;10.91;59.71
46714;BME280;32445;51.376;10.874;2023-02-12T17:05:41;101557.59;;;10.93;59.76
46714;BME280;32445;51.376;10.874;2023-02-12T17:08:44;101567.13;;;10.92;59.39
46714;BME280;32445;51.376;10.874;2023-02-12T17:11:44;101566.25;;;10.91;59.71
46714;BME280;32445;51.376;10.874;2023-02-12T17:14:45;101577.53;;;10.90;59.48
46714;BME280;32445;51.376;10.874;2023-02-12T17:17:46;101572.31;;;10.87;59.40
46714;BME280;32445;51.376;10.874;2023-02-12T17:20:50;101572.31;;;10.87;59.17
46714;BME280;32445;51.376;10.874;2023-02-12T17:23:52;101562.78;;;10.89;59.06
46714;BME280;32445;51.376;10.874;2023-02-12T17:26:54;101568.84;;;10.90;58.57
46714;BME280;32445;51.376;10.874;2023-02-12T17:29:54;101573.19;;;10.89;59.06
46714;BME280;32445;51.376;10.874;2023-02-12T17:32:55;101574.03;;;10.90;58.92
46714;BME280;32445;51.376;10.874;2023-02-12T17:35:57;101576.63;;;10.88;58.65
46714;BME280;32445;51.376;10.874;2023-02-12T17:38:58;101576.63;;;10.91;58.57
46714;BME280;32445;51.376;10.874;2023-02-12T17:41:58;101577.53;;;10.90;58.10
46714;BME280;32445;51.376;10.874;2023-02-12T17:45:01;101575.78;;;10.88;57.98
46714;BME280;32445;51.376;10.874;2023-02-12T17:48:01;101576.63;;;10.85;58.11
46714;BME280;32445;51.376;10.874;2023-02-12T17:51:02;101572.25;;;10.84;58.61
46714;BME280;32445;51.376;10.874;2023-02-12T17:54:02;101578.34;;;10.83;58.51
46714;BME280;32445;51.376;10.874;2023-02-12T17:57:02;101575.69;;;10.80;58.50
46714;BME280;32445;51.376;10.874;2023-02-12T18:00:04;101571.38;;;10.78;58.10
46714;BME280;32445;51.376;10.874;2023-02-12T18:03:06;101582.63;;;10.77;58.40
46714;BME280;32445;51.376;10.874;2023-02-12T18:06:07;101573.06;;;10.74;58.10